createdAt,value
2022-09-28T00:01:16.056Z,17.77
2022-09-28T00:03:43.145Z,17.63
2022-09-28T00:06:14.170Z,17.64
2022-09-28T00:08:40.905Z,17.54
2022-09-28T00:11:12.346Z,17.36
2022-09-28T00:13:39.270Z,17.51
2022-09-28T00:16:19.724Z,17.36
2022-09-28T00:18:51.877Z,17.31
2022-09-28T00:21:24.833Z,17.42
2022-09-28T00:24:12.210Z,17.34
2022-09-28T00:27:06.290Z,17.31
2022-09-28T00:29:37.225Z,17.13
2022-09-28T00:32:24.969Z,17.23
2022-09-28T00:34:56.886Z,17.06
2022-09-28T00:37:24.435Z,17.05
2022-09-28T00:39:51.093Z,17.16
2022-09-28T00:42:22.528Z,16.98
2022-09-28T00:44:51.495Z,17.22
2022-09-28T00:47:21.415Z,16.87
2022-09-28T00:49:47.951Z,17.13
2022-09-28T00:52:31.464Z,17.00
2022-09-28T00:55:01.690Z,16.84
2022-09-28T00:57:29.835Z,16.96
2022-09-28T00:59:58.461Z,16.82
2022-09-28T01:02:25.182Z,16.75
2022-09-28T01:04:52.445Z,16.63
2022-09-28T01:07:19.692Z,16.59
2022-09-28T01:09:46.758Z,16.94
2022-09-28T01:12:13.395Z,17.24
2022-09-28T01:14:41.392Z,17.29
2022-09-28T01:17:14.715Z,17.56
2022-09-28T01:20:06.750Z,17.69
2022-09-28T01:23:13.157Z,17.85
2022-09-28T01:25:39.941Z,17.89
2022-09-28T01:28:14.763Z,17.98
2022-09-28T01:30:59.700Z,18.05
2022-09-28T01:33:39.408Z,17.89
2022-09-28T01:36:20.802Z,18.05
2022-09-28T01:38:50.687Z,18.11
2022-09-28T01:41:18.614Z,18.08
2022-09-28T01:43:53.622Z,17.99
2022-09-28T01:46:37.301Z,18.07
2022-09-28T01:49:31.373Z,18.00
2022-09-28T01:52:23.236Z,18.08
2022-09-28T01:54:59.192Z,18.26
2022-09-28T01:57:37.875Z,18.25
2022-09-28T02:00:12.357Z,18.23
2022-09-28T02:03:17.480Z,18.18
2022-09-28T02:05:51.975Z,17.90
2022-09-28T02:08:30.097Z,17.67
2022-09-28T02:11:03.381Z,17.47
2022-09-28T02:13:38.948Z,17.03
2022-09-28T02:16:30.130Z,17.03
2022-09-28T02:18:57.136Z,16.83
2022-09-28T02:21:40.635Z,16.84
2022-09-28T02:24:17.196Z,16.78
2022-09-28T02:26:55.336Z,16.73
2022-09-28T02:29:22.147Z,16.48
2022-09-28T02:31:52.253Z,16.67
2022-09-28T02:34:21.636Z,16.62
2022-09-28T02:36:48.302Z,16.48
2022-09-28T02:39:17.808Z,16.44
2022-09-28T02:42:11.920Z,16.54
2022-09-28T02:45:14.771Z,16.41
2022-09-28T02:48:35.885Z,16.42
2022-09-28T02:51:36.955Z,16.32
2022-09-28T02:54:40.658Z,16.30
2022-09-28T02:57:44.885Z,16.19
2022-09-28T03:00:21.369Z,16.12
2022-09-28T03:03:06.127Z,16.11
2022-09-28T03:05:56.788Z,16.18
2022-09-28T03:08:42.289Z,16.04
2022-09-28T03:11:20.845Z,15.75
2022-09-28T03:13:48.100Z,15.77
2022-09-28T03:16:21.880Z,15.86
2022-09-28T03:18:48.597Z,15.63
2022-09-28T03:21:16.367Z,15.74
2022-09-28T03:23:43.699Z,15.86
2022-09-28T03:26:14.770Z,16.05
2022-09-28T03:28:44.513Z,15.90
2022-09-28T03:31:11.219Z,15.75
2022-09-28T03:33:37.890Z,15.81
2022-09-28T03:36:06.241Z,15.68
2022-09-28T03:38:35.667Z,15.69
2022-09-28T03:41:02.354Z,15.67
2022-09-28T03:43:30.512Z,15.59
2022-09-28T03:46:02.679Z,15.60
2022-09-28T03:48:35.446Z,15.60
2022-09-28T03:51:05.845Z,15.63
2022-09-28T03:53:33.380Z,15.53
2022-09-28T03:56:10.143Z,15.33
2022-09-28T03:58:36.765Z,15.43
2022-09-28T04:01:24.429Z,15.59
2022-09-28T04:03:57.628Z,15.52
2022-09-28T04:06:25.193Z,15.52
2022-09-28T04:08:53.132Z,15.40
2022-09-28T04:11:26.156Z,15.38
2022-09-28T04:13:52.738Z,15.36
2022-09-28T04:16:19.866Z,15.29
2022-09-28T04:18:48.043Z,15.49
2022-09-28T04:21:17.066Z,15.49
2022-09-28T04:23:44.308Z,15.45
2022-09-28T04:26:36.552Z,15.50
2022-09-28T04:29:20.832Z,15.30
2022-09-28T04:31:55.442Z,15.24
2022-09-28T04:34:23.184Z,15.38
2022-09-28T04:36:50.185Z,15.39
2022-09-28T04:39:18.449Z,15.48
2022-09-28T04:41:51.449Z,15.52
2022-09-28T04:44:21.060Z,15.50
2022-09-28T04:46:49.802Z,15.52
2022-09-28T04:49:17.865Z,15.45
2022-09-28T04:51:44.611Z,15.47
2022-09-28T04:54:11.340Z,15.40
2022-09-28T04:56:41.919Z,15.66
2022-09-28T04:59:08.543Z,15.78
2022-09-28T05:01:35.620Z,15.78
2022-09-28T05:04:02.419Z,15.77
2022-09-28T05:06:32.339Z,15.87
2022-09-28T05:08:59.860Z,16.08
2022-09-28T05:11:28.997Z,16.17
2022-09-28T05:13:55.846Z,16.36
2022-09-28T05:16:22.583Z,16.19
2022-09-28T05:18:49.364Z,16.51
2022-09-28T05:21:15.980Z,16.58
2022-09-28T05:23:47.413Z,16.85
2022-09-28T05:26:15.124Z,16.83
2022-09-28T05:28:42.016Z,16.96
2022-09-28T05:31:15.963Z,17.26
2022-09-28T05:33:42.718Z,17.25
2022-09-28T05:36:13.148Z,17.55
2022-09-28T05:38:39.828Z,17.66
2022-09-28T05:41:09.658Z,17.88
2022-09-28T05:43:39.531Z,17.86
2022-09-28T05:46:06.469Z,17.86
2022-09-28T05:48:34.647Z,17.90
2022-09-28T05:51:01.841Z,18.08
2022-09-28T05:53:28.535Z,18.18
2022-09-28T05:55:59.953Z,18.19
2022-09-28T05:58:29.821Z,18.18
2022-09-28T06:00:57.121Z,18.24
2022-09-28T06:03:24.296Z,18.58
2022-09-28T06:05:51.239Z,18.62
2022-09-28T06:08:17.961Z,18.73
2022-09-28T06:10:46.011Z,18.59
2022-09-28T06:13:12.730Z,18.80
2022-09-28T06:15:42.507Z,18.87
2022-09-28T06:18:15.198Z,19.22
2022-09-28T06:20:42.573Z,19.29
2022-09-28T06:23:10.798Z,19.66
2022-09-28T06:25:37.405Z,19.86
2022-09-28T06:28:12.064Z,20.28
2022-09-28T06:30:44.147Z,20.55
2022-09-28T06:33:13.763Z,20.67
2022-09-28T06:35:40.822Z,20.80
2022-09-28T06:38:07.859Z,20.63
2022-09-28T06:40:36.453Z,20.99
2022-09-28T06:43:21.331Z,21.02
2022-09-28T06:45:54.756Z,21.02
2022-09-28T06:48:23.545Z,21.34
2022-09-28T06:50:50.614Z,21.41
2022-09-28T06:53:17.740Z,21.02
2022-09-28T06:55:49.218Z,21.07
2022-09-28T06:58:20.046Z,21.37
2022-09-28T07:00:54.294Z,21.17
2022-09-28T07:03:22.442Z,21.38
2022-09-28T07:05:53.977Z,21.76
2022-09-28T07:08:26.491Z,21.81
2022-09-28T07:10:59.359Z,21.76
2022-09-28T07:13:50.973Z,21.56
2022-09-28T07:16:19.645Z,21.63
2022-09-28T07:18:48.911Z,21.92
2022-09-28T07:21:26.639Z,22.05
2022-09-28T07:23:55.226Z,22.11
2022-09-28T07:26:24.355Z,22.47
2022-09-28T07:28:51.633Z,22.46
2022-09-28T07:31:19.420Z,22.44
2022-09-28T07:33:49.481Z,22.53
2022-09-28T07:36:18.406Z,22.63
2022-09-28T07:38:46.047Z,22.25
2022-09-28T07:41:12.941Z,22.20
2022-09-28T07:43:41.964Z,22.41
2022-09-28T07:46:12.261Z,22.61
2022-09-28T07:48:41.054Z,22.73
2022-09-28T07:51:10.875Z,22.72
2022-09-28T07:53:41.026Z,22.71
2022-09-28T07:56:18.155Z,22.42
2022-09-28T07:58:49.337Z,22.21
2022-09-28T08:01:16.701Z,22.34
2022-09-28T08:03:45.754Z,22.39
2022-09-28T08:06:14.555Z,22.53
2022-09-28T08:08:45.109Z,22.68
2022-09-28T08:11:14.410Z,22.71
2022-09-28T08:13:45.787Z,22.71
2022-09-28T08:16:12.633Z,22.86
2022-09-28T08:18:39.428Z,23.02
2022-09-28T08:21:25.335Z,23.29
2022-09-28T08:23:53.468Z,23.33
2022-09-28T08:26:23.219Z,23.24
2022-09-28T08:28:50.318Z,23.60
2022-09-28T08:31:20.222Z,23.74
2022-09-28T08:33:47.985Z,23.56
2022-09-28T08:36:14.645Z,23.95
2022-09-28T08:38:45.058Z,24.27
2022-09-28T08:41:42.069Z,24.37
2022-09-28T08:44:16.534Z,24.58
2022-09-28T08:47:06.430Z,24.40
2022-09-28T08:49:43.439Z,24.51
2022-09-28T08:52:17.547Z,24.65
2022-09-28T08:55:07.702Z,24.88
2022-09-28T08:58:01.204Z,24.79
2022-09-28T09:00:38.770Z,24.91
2022-09-28T09:03:10.881Z,24.93
2022-09-28T09:06:13.336Z,25.25
2022-09-28T09:09:20.811Z,24.98
2022-09-28T09:12:00.864Z,25.29
2022-09-28T09:14:42.669Z,25.40
2022-09-28T09:17:36.639Z,25.74
2022-09-28T09:23:21.500Z,26.01
2022-09-28T09:25:54.971Z,26.14
2022-09-28T09:28:50.695Z,26.31
2022-09-28T09:31:36.297Z,25.78
2022-09-28T09:34:18.335Z,25.92
2022-09-28T09:37:14.001Z,26.36
2022-09-28T09:39:46.953Z,26.46
2022-09-28T09:42:51.424Z,26.77
2022-09-28T09:45:45.409Z,27.08
2022-09-28T09:48:28.967Z,27.09
2022-09-28T09:51:01.120Z,26.68
2022-09-28T09:53:42.078Z,26.64
2022-09-28T09:56:18.820Z,27.11
2022-09-28T09:58:52.146Z,27.41
2022-09-28T10:01:33.921Z,27.49
2022-09-28T10:04:08.750Z,27.90
2022-09-28T10:06:38.167Z,27.87
2022-09-28T10:09:10.108Z,27.65
2022-09-28T10:11:43.927Z,27.76
2022-09-28T10:14:22.549Z,27.89
2022-09-28T10:16:57.953Z,27.89
2022-09-28T10:19:33.668Z,27.63
2022-09-28T10:22:06.546Z,27.37
2022-09-28T10:24:42.820Z,27.21
2022-09-28T10:27:16.887Z,27.60
2022-09-28T10:29:50.912Z,27.72
2022-09-28T10:32:24.106Z,27.73
2022-09-28T10:34:53.324Z,27.80
2022-09-28T10:37:20.195Z,28.14
2022-09-28T10:39:49.636Z,28.29
2022-09-28T10:42:27.012Z,27.99
2022-09-28T10:44:58.370Z,27.69
2022-09-28T10:47:35.890Z,27.72
2022-09-28T10:50:03.935Z,27.42
2022-09-28T10:52:35.681Z,27.04
2022-09-28T10:55:39.490Z,26.91
2022-09-28T10:58:27.428Z,27.61
2022-09-28T11:01:02.482Z,27.74
2022-09-28T11:03:38.625Z,27.91
2022-09-28T11:06:09.134Z,28.04
2022-09-28T11:08:57.635Z,28.36
2022-09-28T11:11:24.812Z,28.23
2022-09-28T11:14:28.965Z,28.30
2022-09-28T11:17:26.478Z,28.82
2022-09-28T11:19:59.601Z,29.14
2022-09-28T11:22:58.336Z,29.32
2022-09-28T11:25:53.884Z,29.35
2022-09-28T11:28:42.770Z,29.62
2022-09-28T11:31:11.980Z,29.58
2022-09-28T11:33:41.458Z,29.30
2022-09-28T11:36:14.684Z,30.08
2022-09-28T11:38:48.239Z,30.60
2022-09-28T11:41:24.006Z,30.59
2022-09-28T11:44:30.945Z,30.80
2022-09-28T11:47:00.074Z,32.87
2022-09-28T11:49:43.958Z,35.05
2022-09-28T11:52:44.822Z,36.33
2022-09-28T11:55:19.107Z,36.67
2022-09-28T11:57:50.691Z,37.60
2022-09-28T12:00:22.344Z,38.38
2022-09-28T12:02:59.678Z,37.78
2022-09-28T12:05:34.043Z,39.13
2022-09-28T12:08:09.910Z,40.62
2022-09-28T12:10:45.597Z,41.25
2022-09-28T12:13:22.515Z,40.33
2022-09-28T12:16:45.179Z,40.19
2022-09-28T12:19:20.328Z,39.41
2022-09-28T12:22:18.347Z,40.28
2022-09-28T12:24:51.810Z,38.12
2022-09-28T12:27:48.784Z,36.65
2022-09-28T12:30:19.938Z,37.62
2022-09-28T12:33:09.213Z,37.96
2022-09-28T12:36:07.051Z,36.00
2022-09-28T12:39:35.824Z,35.80
2022-09-28T12:42:21.812Z,37.28
2022-09-28T12:45:15.068Z,38.98
2022-09-28T12:47:50.127Z,36.97
2022-09-28T12:50:40.286Z,37.55
2022-09-28T12:53:25.934Z,38.85
2022-09-28T12:56:18.034Z,38.84
2022-09-28T12:59:31.475Z,34.34
2022-09-28T13:01:58.305Z,32.36
2022-09-28T13:05:08.586Z,31.21
2022-09-28T13:08:07.132Z,30.27
2022-09-28T13:11:08.961Z,29.54
2022-09-28T13:13:54.769Z,29.04
2022-09-28T13:16:24.136Z,28.54
2022-09-28T13:19:10.931Z,28.17
2022-09-28T13:22:22.831Z,28.21
2022-09-28T13:24:51.476Z,27.69
2022-09-28T13:27:38.156Z,27.55
2022-09-28T13:30:07.342Z,27.42
2022-09-28T13:32:37.569Z,27.20
2022-09-28T13:35:25.422Z,27.32
2022-09-28T13:38:17.496Z,27.35
2022-09-28T13:41:07.868Z,27.16
2022-09-28T13:44:16.797Z,27.04
2022-09-28T13:47:13.260Z,27.06
2022-09-28T13:49:58.601Z,27.07
2022-09-28T13:53:08.063Z,26.98
2022-09-28T13:55:55.934Z,26.94
2022-09-28T13:58:32.488Z,26.71
2022-09-28T14:01:10.963Z,26.75
2022-09-28T14:04:15.165Z,26.63
2022-09-28T14:06:48.145Z,26.60
2022-09-28T14:09:45.071Z,26.61
2022-09-28T14:12:43.577Z,26.56
2022-09-28T14:15:28.955Z,26.54
2022-09-28T14:18:24.024Z,26.54
2022-09-28T14:21:03.027Z,26.46
2022-09-28T14:23:38.729Z,26.38
2022-09-28T14:26:11.300Z,26.22
2022-09-28T14:28:54.635Z,26.31
2022-09-28T14:31:27.766Z,26.29
2022-09-28T14:34:03.397Z,26.16
2022-09-28T14:37:06.421Z,26.03
2022-09-28T14:39:53.366Z,25.95
2022-09-28T14:42:25.584Z,25.83
2022-09-28T14:45:06.777Z,25.88
2022-09-28T14:48:03.049Z,25.70
2022-09-28T14:50:32.719Z,25.60
2022-09-28T14:53:13.823Z,25.64
2022-09-28T14:55:55.631Z,25.60
2022-09-28T14:58:29.879Z,25.49
2022-09-28T15:01:20.374Z,25.47
2022-09-28T15:03:55.648Z,25.34
2022-09-28T15:06:25.474Z,25.36
2022-09-28T15:08:52.911Z,25.22
2022-09-28T15:11:25.477Z,25.15
2022-09-28T15:14:07.757Z,25.16
2022-09-28T15:16:34.616Z,25.07
2022-09-28T15:19:38.705Z,25.10
2022-09-28T15:22:21.067Z,24.90
2022-09-28T15:25:02.413Z,24.82
2022-09-28T15:27:38.704Z,24.82
2022-09-28T15:30:34.489Z,24.65
2022-09-28T15:33:21.609Z,24.54
2022-09-28T15:36:05.926Z,24.47
2022-09-28T15:38:34.760Z,24.27
2022-09-28T15:41:06.995Z,24.18
2022-09-28T15:43:38.504Z,24.09
2022-09-28T15:46:16.241Z,23.81
2022-09-28T15:49:04.682Z,23.84
2022-09-28T15:51:44.867Z,23.51
2022-09-28T15:54:24.869Z,23.63
2022-09-28T15:57:03.090Z,23.51
2022-09-28T15:59:38.240Z,23.48
2022-09-28T16:02:22.632Z,23.36
2022-09-28T16:04:54.175Z,23.27
2022-09-28T16:07:38.600Z,23.17
2022-09-28T16:10:15.386Z,23.11
2022-09-28T16:12:54.594Z,22.99
2022-09-28T16:15:39.994Z,22.83
2022-09-28T16:18:20.893Z,22.76
2022-09-28T16:20:57.345Z,22.49
2022-09-28T16:23:33.756Z,22.53
2022-09-28T16:26:16.098Z,22.47
2022-09-28T16:28:46.048Z,22.42
2022-09-28T16:31:12.667Z,22.37
2022-09-28T16:34:11.698Z,22.29
2022-09-28T16:39:29.512Z,22.09
2022-09-28T16:42:03.137Z,22.22
2022-09-28T16:44:37.045Z,22.02
2022-09-28T16:47:03.690Z,22.09
2022-09-28T16:49:32.286Z,21.96
2022-09-28T16:51:59.567Z,21.91
2022-09-28T16:54:44.771Z,21.89
2022-09-28T16:57:13.597Z,21.97
2022-09-28T16:59:40.482Z,21.96
2022-09-28T17:05:12.951Z,21.62
2022-09-28T17:07:41.440Z,21.68
2022-09-28T17:10:17.554Z,21.79
2022-09-28T17:12:44.369Z,21.70
2022-09-28T17:15:13.579Z,21.51
2022-09-28T17:17:45.298Z,21.62
2022-09-28T17:20:23.026Z,21.48
2022-09-28T17:22:51.091Z,21.31
2022-09-28T17:25:18.325Z,21.23
2022-09-28T17:27:48.195Z,21.36
2022-09-28T17:30:16.502Z,21.34
2022-09-28T17:32:47.220Z,21.29
2022-09-28T17:35:26.246Z,21.13
2022-09-28T17:37:53.201Z,21.05
2022-09-28T17:40:22.703Z,21.12
2022-09-28T17:42:54.311Z,21.00
2022-09-28T17:45:20.939Z,20.98
2022-09-28T17:47:47.602Z,20.97
2022-09-28T17:50:17.402Z,21.00
2022-09-28T17:52:44.146Z,20.77
2022-09-28T17:55:12.322Z,21.05
2022-09-28T17:57:39.133Z,20.89
2022-09-28T18:00:06.494Z,20.99
2022-09-28T18:02:33.701Z,20.97
2022-09-28T18:05:12.611Z,20.84
2022-09-28T18:07:41.419Z,20.77
2022-09-28T18:10:14.995Z,20.89
2022-09-28T18:12:43.131Z,20.88
2022-09-28T18:15:10.843Z,20.85
2022-09-28T18:17:38.749Z,20.56
2022-09-28T18:20:26.054Z,20.38
2022-09-28T18:22:52.865Z,20.25
2022-09-28T18:25:19.605Z,20.16
2022-09-28T18:27:47.947Z,20.07
2022-09-28T18:30:19.739Z,19.94
2022-09-28T18:32:49.540Z,19.94
2022-09-28T18:35:22.642Z,19.69
2022-09-28T18:37:50.058Z,19.49
2022-09-28T18:40:18.166Z,19.81
2022-09-28T18:42:45.814Z,19.82
2022-09-28T18:45:12.452Z,19.85
2022-09-28T18:47:41.144Z,19.82
2022-09-28T18:50:13.043Z,19.99
2022-09-28T18:52:40.497Z,19.97
2022-09-28T18:55:08.704Z,19.88
2022-09-28T18:57:35.409Z,19.92
2022-09-28T19:00:06.493Z,20.07
2022-09-28T19:02:33.221Z,20.06
2022-09-28T19:04:59.925Z,19.92
2022-09-28T19:07:27.735Z,19.98
2022-09-28T19:09:54.355Z,20.01
2022-09-28T19:12:21.076Z,19.93
2022-09-28T19:14:49.956Z,19.88
2022-09-28T19:17:17.931Z,19.70
2022-09-28T19:19:47.602Z,19.74
2022-09-28T19:22:14.175Z,19.72
2022-09-28T19:24:40.879Z,19.45
2022-09-28T19:27:07.456Z,19.44
2022-09-28T19:29:34.500Z,19.48
2022-09-28T19:32:01.316Z,19.50
2022-09-28T19:34:30.172Z,19.33
2022-09-28T19:36:57.323Z,19.44
2022-09-28T19:39:24.005Z,19.29
2022-09-28T19:41:54.349Z,19.29
2022-09-28T19:44:25.867Z,19.53
2022-09-28T19:47:13.150Z,19.60
2022-09-28T19:49:40.732Z,19.54
2022-09-28T19:52:19.288Z,19.47
2022-09-28T19:54:59.241Z,19.35
2022-09-28T19:57:28.555Z,19.44
2022-09-28T20:00:01.713Z,19.44
2022-09-28T20:02:29.247Z,19.41
2022-09-28T20:04:56.112Z,19.35
2022-09-28T20:07:25.323Z,19.36
2022-09-28T20:09:52.077Z,19.32
2022-09-28T20:12:18.977Z,19.25
2022-09-28T20:14:45.584Z,19.16
2022-09-28T20:17:15.329Z,19.33
2022-09-28T20:19:42.336Z,18.95
2022-09-28T20:22:08.953Z,19.15
2022-09-28T20:24:35.549Z,19.12
2022-09-28T20:27:02.572Z,19.06
2022-09-28T20:29:31.807Z,19.14
2022-09-28T20:32:08.049Z,18.96
2022-09-28T20:34:35.039Z,18.88
2022-09-28T20:37:02.792Z,19.03
2022-09-28T20:39:29.632Z,18.85
2022-09-28T20:41:56.272Z,18.66
2022-09-28T20:44:22.965Z,18.73
2022-09-28T20:46:51.324Z,18.96
2022-09-28T20:49:18.104Z,18.89
2022-09-28T20:51:47.328Z,18.88
2022-09-28T20:54:13.896Z,18.69
2022-09-28T20:56:40.530Z,18.80
2022-09-28T20:59:08.944Z,18.78
2022-09-28T21:01:35.887Z,18.83
2022-09-28T21:04:04.911Z,18.88
2022-09-28T21:06:36.965Z,18.67
2022-09-28T21:09:09.466Z,18.86
2022-09-28T21:11:39.814Z,18.70
2022-09-28T21:14:10.365Z,18.86
2022-09-28T21:16:37.872Z,18.84
2022-09-28T21:19:04.667Z,18.86
2022-09-28T21:21:31.436Z,18.67
2022-09-28T21:23:59.448Z,18.55
2022-09-28T21:26:29.112Z,18.56
2022-09-28T21:29:01.379Z,18.52
2022-09-28T21:31:31.466Z,18.66
2022-09-28T21:33:58.736Z,18.84
2022-09-28T21:36:25.853Z,18.92
2022-09-28T21:38:54.235Z,18.62
2022-09-28T21:41:21.036Z,18.54
2022-09-28T21:43:47.636Z,18.68
2022-09-28T21:46:17.888Z,18.71
2022-09-28T21:48:45.132Z,18.53
2022-09-28T21:51:17.958Z,18.56
2022-09-28T21:53:44.745Z,18.48
2022-09-28T21:56:12.694Z,18.58
2022-09-28T21:58:40.182Z,18.50
2022-09-28T22:01:16.090Z,18.61
2022-09-28T22:03:44.710Z,18.59
2022-09-28T22:06:13.096Z,18.48
2022-09-28T22:08:41.396Z,18.50
2022-09-28T22:11:22.277Z,18.37
2022-09-28T22:13:55.024Z,18.62
2022-09-28T22:16:24.674Z,18.49
2022-09-28T22:18:51.891Z,18.12
2022-09-28T22:21:30.034Z,18.16
2022-09-28T22:24:05.017Z,18.26
2022-09-28T22:26:33.654Z,18.19
2022-09-28T22:29:05.116Z,18.06
2022-09-28T22:31:34.550Z,18.13
2022-09-28T22:34:02.478Z,18.05
2022-09-28T22:36:31.133Z,18.17
2022-09-28T22:39:02.564Z,18.25
2022-09-28T22:41:29.876Z,18.13
2022-09-28T22:43:56.711Z,18.14
2022-09-28T22:46:26.491Z,18.04
2022-09-28T22:48:58.422Z,17.95
2022-09-28T22:51:37.005Z,17.99
2022-09-28T22:54:03.856Z,17.95
2022-09-28T22:56:31.005Z,17.99
2022-09-28T22:58:57.944Z,18.06
2022-09-28T23:01:27.639Z,17.99
2022-09-28T23:03:56.642Z,18.04
2022-09-28T23:06:26.644Z,18.00
2022-09-28T23:08:53.518Z,17.98
2022-09-28T23:11:20.649Z,17.69
2022-09-28T23:13:52.218Z,17.84
2022-09-28T23:16:19.655Z,17.95
2022-09-28T23:18:49.280Z,17.94
2022-09-28T23:21:23.394Z,18.01
2022-09-28T23:23:59.011Z,18.06
2022-09-28T23:26:30.046Z,18.00
2022-09-28T23:28:57.897Z,18.08
2022-09-28T23:31:28.086Z,18.02
2022-09-28T23:34:03.621Z,18.09
2022-09-28T23:36:38.312Z,17.88
2022-09-28T23:39:07.555Z,17.89
2022-09-28T23:41:34.174Z,17.70
2022-09-28T23:44:00.918Z,17.83
2022-09-28T23:46:27.606Z,17.88
2022-09-28T23:48:55.585Z,17.86
2022-09-28T23:51:24.930Z,17.78
2022-09-28T23:53:51.559Z,17.76
2022-09-28T23:56:19.701Z,17.77
2022-09-28T23:58:46.264Z,17.60
